Time,TemperatureF,DewpointF,PressureIn,WindDirection,WindDirectionDegrees,WindSpeedMPH,WindSpeedGustMPH,Humidity,HourlyPrecipIn,Conditions,Clouds,dailyrainin,SoftwareType,DateUTC
2013-05-20 00:00:00,68.7,54.3,29.70,WNW,293,14.0,20.0,60,0.00,,,0.15,meteohub,2013-05-20 05:00:00,
2013-05-20 00:05:00,68.7,54.3,29.70,SSW,203,13.0,21.0,60,0.00,,,0.00,meteohub,2013-05-20 05:05:00,
2013-05-20 00:10:00,68.7,54.3,29.70,SSW,203,13.0,21.0,60,0.00,,,0.00,meteohub,2013-05-20 05:10:00,
2013-05-20 00:15:00,68.9,54.0,29.71,South,180,14.0,21.0,59,0.00,,,0.00,meteohub,2013-05-20 05:15:00,
2013-05-20 00:20:00,69.3,54.3,29.71,SE,135,21.0,21.0,59,0.00,,,0.00,meteohub,2013-05-20 05:20:00,
2013-05-20 00:25:00,69.3,53.8,29.71,South,180,10.0,21.0,58,0.00,,,0.00,meteohub,2013-05-20 05:25:00,
2013-05-20 00:30:00,69.4,54.0,29.70,South,180,14.0,21.0,58,0.00,,,0.00,meteohub,2013-05-20 05:30:00,
2013-05-20 00:35:00,69.4,54.0,29.70,SE,135,11.0,21.0,58,0.00,,,0.00,meteohub,2013-05-20 05:35:00,
2013-05-20 00:41:00,69.4,54.0,29.72,South,180,11.0,16.0,58,0.00,,,0.00,meteohub,2013-05-20 05:41:00,
2013-05-20 00:46:00,69.4,54.0,29.73,South,180,11.0,15.0,58,0.00,,,0.00,meteohub,2013-05-20 05:46:00,
2013-05-20 00:51:00,69.8,54.0,29.73,South,180,22.0,22.0,57,0.00,,,0.00,meteohub,2013-05-20 05:51:00,
2013-05-20 00:56:00,69.4,56.7,29.70,South,180,17.0,24.0,64,0.00,,,0.00,meteohub,2013-05-20 05:56:00,
2013-05-20 01:01:00,69.4,58.5,29.76,South,180,17.0,24.0,68,0.00,,,0.00,meteohub,2013-05-20 06:01:00,
2013-05-20 01:06:00,68.2,57.6,29.81,West,270,26.0,26.0,69,0.02,,,0.02,meteohub,2013-05-20 06:06:00,
2013-05-20 01:11:00,64.0,57.7,29.78,WNW,293,20.0,41.0,80,0.06,,,0.06,meteohub,2013-05-20 06:11:00,
2013-05-20 01:16:00,63.3,57.7,29.78,West,270,17.0,41.0,82,0.12,,,0.09,meteohub,2013-05-20 06:16:00,
2013-05-20 01:21:00,62.4,57.9,29.78,West,270,10.0,31.0,85,0.13,,,0.13,meteohub,2013-05-20 06:21:00,
2013-05-20 01:26:00,61.9,57.9,29.78,SW,225,13.0,24.0,87,0.17,,,0.17,meteohub,2013-05-20 06:26:00,
2013-05-20 01:31:00,61.9,57.9,29.76,West,270,8.0,17.0,87,0.19,,,0.19,meteohub,2013-05-20 06:31:00,
2013-05-20 01:36:00,61.7,57.7,29.77,South,180,4.0,13.0,87,0.20,,,0.20,meteohub,2013-05-20 06:36:00,
2013-05-20 01:41:00,61.7,58.1,29.77,SE,135,8.0,13.0,88,0.21,,,0.21,meteohub,2013-05-20 06:41:00,
2013-05-20 01:46:00,61.7,58.5,29.75,East,90,7.0,10.0,89,0.21,,,0.21,meteohub,2013-05-20 06:46:00,
2013-05-20 01:52:00,61.5,58.6,29.75,East,90,8.0,10.0,90,0.21,,,0.21,meteohub,2013-05-20 06:52:00,
2013-05-20 01:57:00,61.3,58.5,29.75,East,90,8.0,10.0,90,0.21,,,0.21,meteohub,2013-05-20 06:57:00,
2013-05-20 02:02:00,61.3,58.6,29.75,SE,135,8.0,10.0,91,0.21,,,0.21,meteohub,2013-05-20 07:02:00,
2013-05-20 02:07:00,61.3,58.6,29.75,ESE,113,8.0,10.0,91,0.18,,,0.21,meteohub,2013-05-20 07:07:00,
2013-05-20 02:12:00,61.3,59.0,29.74,SE,135,10.0,10.0,92,0.14,,,0.21,meteohub,2013-05-20 07:12:00,
2013-05-20 02:17:00,61.3,59.0,29.74,SE,135,8.0,10.0,92,0.09,,,0.21,meteohub,2013-05-20 07:17:00,
2013-05-20 02:22:00,61.3,59.0,29.74,SE,135,5.0,10.0,92,0.07,,,0.21,meteohub,2013-05-20 07:22:00,
2013-05-20 02:27:00,61.3,59.0,29.73,SE,135,8.0,10.0,92,0.05,,,0.21,meteohub,2013-05-20 07:27:00,
2013-05-20 02:32:00,61.3,59.0,29.73,SE,135,7.0,8.0,92,0.01,,,0.21,meteohub,2013-05-20 07:32:00,
2013-05-20 02:37:00,61.3,59.0,29.73,SE,135,7.0,8.0,92,0.00,,,0.21,meteohub,2013-05-20 07:37:00,
2013-05-20 02:42:00,61.3,59.0,29.73,SE,135,4.0,8.0,92,0.00,,,0.21,meteohub,2013-05-20 07:42:00,
2013-05-20 02:47:00,61.2,58.8,29.73,SE,135,5.0,7.0,92,0.00,,,0.21,meteohub,2013-05-20 07:47:00,
2013-05-20 02:52:00,61.2,58.8,29.72,SE,135,4.0,7.0,92,0.00,,,0.21,meteohub,2013-05-20 07:52:00,
2013-05-20 02:57:00,61.2,58.8,29.72,South,180,4.0,6.0,92,0.00,,,0.21,meteohub,2013-05-20 07:57:00,
2013-05-20 03:02:00,61.2,58.8,29.71,SE,135,3.0,6.0,92,0.00,,,0.21,meteohub,2013-05-20 08:02:00,
2013-05-20 03:07:00,61.2,58.8,29.73,SE,135,3.0,5.0,92,0.00,,,0.21,meteohub,2013-05-20 08:07:00,
2013-05-20 03:12:00,61.0,59.0,29.72,South,180,6.0,6.0,93,0.00,,,0.21,meteohub,2013-05-20 08:12:00,
2013-05-20 03:17:00,61.0,59.0,29.72,South,180,6.0,7.0,93,0.00,,,0.21,meteohub,2013-05-20 08:17:00,
2013-05-20 03:22:00,61.0,59.0,29.73,SW,225,9.0,9.0,93,0.00,,,0.21,meteohub,2013-05-20 08:22:00,
2013-05-20 03:27:00,61.0,59.0,29.73,SW,225,7.0,9.0,93,0.00,,,0.21,meteohub,2013-05-20 08:27:00,
2013-05-20 03:32:00,61.0,59.0,29.71,SE,135,5.0,9.0,93,0.00,,,0.21,meteohub,2013-05-20 08:32:00,
2013-05-20 03:37:00,60.8,58.8,29.71,SE,135,6.0,9.0,93,0.00,,,0.21,meteohub,2013-05-20 08:37:00,
2013-05-20 03:42:00,60.6,58.6,29.70,SE,135,8.0,8.0,93,0.00,,,0.21,meteohub,2013-05-20 08:42:00,
2013-05-20 03:47:00,60.6,58.6,29.71,SE,135,7.0,8.0,93,0.00,,,0.21,meteohub,2013-05-20 08:47:00,
2013-05-20 03:52:00,60.8,58.8,29.72,SSE,158,11.0,11.0,93,0.00,,,0.21,meteohub,2013-05-20 08:52:00,
2013-05-20 03:57:00,60.8,59.0,29.73,SSW,203,8.0,11.0,94,0.00,,,0.21,meteohub,2013-05-20 08:57:00,
2013-05-20 04:02:00,60.8,59.0,29.72,SW,225,8.0,11.0,94,0.00,,,0.21,meteohub,2013-05-20 09:02:00,
2013-05-20 04:07:00,60.8,59.0,29.72,SW,225,8.0,11.0,94,0.00,,,0.21,meteohub,2013-05-20 09:07:00,
2013-05-20 04:12:00,60.8,59.0,29.71,South,180,10.0,11.0,94,0.00,,,0.21,meteohub,2013-05-20 09:12:00,
2013-05-20 04:17:00,60.8,59.0,29.71,South,180,8.0,11.0,94,0.00,,,0.21,meteohub,2013-05-20 09:17:00,
2013-05-20 04:22:00,60.8,59.0,29.71,South,180,8.0,11.0,94,0.00,,,0.21,meteohub,2013-05-20 09:22:00,
2013-05-20 04:27:00,60.8,58.8,29.70,SE,135,8.0,11.0,93,0.00,,,0.21,meteohub,2013-05-20 09:27:00,
2013-05-20 04:32:00,60.6,58.6,29.70,SE,135,8.0,11.0,93,0.00,,,0.21,meteohub,2013-05-20 09:32:00,
2013-05-20 04:37:00,60.6,58.6,29.68,SE,135,13.0,13.0,93,0.00,,,0.21,meteohub,2013-05-20 09:37:00,
2013-05-20 04:42:00,60.6,58.6,29.68,SE,135,14.0,14.0,93,0.00,,,0.21,meteohub,2013-05-20 09:42:00,
2013-05-20 04:47:00,60.6,58.6,29.67,SE,135,13.0,14.0,93,0.00,,,0.21,meteohub,2013-05-20 09:47:00,
2013-05-20 04:52:00,60.8,58.8,29.67,SE,135,12.0,15.0,93,0.00,,,0.21,meteohub,2013-05-20 09:52:00,
2013-05-20 04:57:00,60.8,58.8,29.68,SE,135,11.0,15.0,93,0.00,,,0.21,meteohub,2013-05-20 09:57:00,
2013-05-20 05:02:00,60.8,58.8,29.67,South,180,15.0,15.0,93,0.00,,,0.21,meteohub,2013-05-20 10:02:00,
2013-05-20 05:07:00,60.8,58.8,29.68,South,180,15.0,15.0,93,0.00,,,0.21,meteohub,2013-05-20 10:07:00,
2013-05-20 05:12:00,61.0,58.6,29.68,South,180,6.0,15.0,92,0.00,,,0.21,meteohub,2013-05-20 10:12:00,
2013-05-20 05:17:00,61.2,58.5,29.68,South,180,13.0,15.0,91,0.00,,,0.21,meteohub,2013-05-20 10:17:00,
2013-05-20 05:22:00,61.0,58.3,29.68,SW,225,8.0,15.0,91,0.00,,,0.21,meteohub,2013-05-20 10:22:00,
2013-05-20 05:27:00,61.0,58.3,29.68,SW,225,5.0,14.0,91,0.00,,,0.21,meteohub,2013-05-20 10:27:00,
2013-05-20 05:32:00,60.8,58.1,29.68,SE,135,8.0,13.0,91,0.00,,,0.21,meteohub,2013-05-20 10:32:00,
2013-05-20 05:37:00,60.8,58.1,29.68,East,90,5.0,10.0,91,0.00,,,0.21,meteohub,2013-05-20 10:37:00,
2013-05-20 05:42:00,60.8,58.1,29.68,SE,135,7.0,10.0,91,0.00,,,0.21,meteohub,2013-05-20 10:42:00,
2013-05-20 05:47:00,60.6,57.9,29.67,SE,135,6.0,10.0,91,0.00,,,0.21,meteohub,2013-05-20 10:47:00,
2013-05-20 05:52:00,60.6,57.9,29.68,SSE,158,5.0,8.0,91,0.00,,,0.21,meteohub,2013-05-20 10:52:00,
2013-05-20 05:57:00,60.6,57.9,29.68,SSW,203,7.0,8.0,91,0.00,,,0.21,meteohub,2013-05-20 10:57:00,
2013-05-20 06:02:00,60.6,57.9,29.69,South,180,7.0,9.0,91,0.00,,,0.21,meteohub,2013-05-20 11:02:00,
2013-05-20 06:07:00,60.8,58.1,29.70,SW,225,8.0,12.0,91,0.00,,,0.21,meteohub,2013-05-20 11:07:00,
2013-05-20 06:12:00,60.8,58.1,29.71,South,180,11.0,12.0,91,0.00,,,0.21,meteohub,2013-05-20 11:12:00,
2013-05-20 06:17:00,61.0,58.3,29.71,SW,225,11.0,12.0,91,0.00,,,0.21,meteohub,2013-05-20 11:17:00,
2013-05-20 06:22:00,61.2,58.3,29.72,SW,225,13.0,13.0,90,0.00,,,0.21,meteohub,2013-05-20 11:22:00,
2013-05-20 06:27:00,61.3,58.1,29.72,South,180,15.0,15.0,89,0.00,,,0.21,meteohub,2013-05-20 11:27:00,
2013-05-20 06:32:00,61.9,58.3,29.73,South,180,14.0,17.0,88,0.00,,,0.21,meteohub,2013-05-20 11:32:00,
2013-05-20 06:37:00,62.2,57.9,29.73,South,180,15.0,17.0,86,0.00,,,0.21,meteohub,2013-05-20 11:37:00,
2013-05-20 06:42:00,62.6,58.1,29.73,SE,135,8.0,18.0,85,0.00,,,0.21,meteohub,2013-05-20 11:42:00,
2013-05-20 06:47:00,63.0,58.1,29.72,South,180,15.0,18.0,84,0.00,,,0.21,meteohub,2013-05-20 11:47:00,
2013-05-20 06:52:00,63.1,57.6,29.73,East,90,12.0,18.0,82,0.01,,,0.22,meteohub,2013-05-20 11:52:00,
2013-05-20 06:57:00,63.3,57.7,29.72,South,180,14.0,16.0,82,0.01,,,0.22,meteohub,2013-05-20 11:57:00,
2013-05-20 07:02:00,63.3,57.7,29.72,NW,315,12.0,16.0,82,0.01,,,0.22,meteohub,2013-05-20 12:02:00,
2013-05-20 07:07:00,63.3,57.7,29.72,SW,225,10.0,16.0,82,0.01,,,0.22,meteohub,2013-05-20 12:07:00,
2013-05-20 07:12:00,63.5,57.6,29.72,South,180,12.0,15.0,81,0.01,,,0.22,meteohub,2013-05-20 12:12:00,
2013-05-20 07:17:00,63.7,57.0,29.72,SW,225,15.0,22.0,79,0.01,,,0.22,meteohub,2013-05-20 12:17:00,
2013-05-20 07:22:00,63.9,57.6,29.72,NW,315,9.0,22.0,80,0.01,,,0.22,meteohub,2013-05-20 12:22:00,
2013-05-20 07:27:00,63.9,57.2,29.72,NW,315,9.0,17.0,79,0.01,,,0.22,meteohub,2013-05-20 12:27:00,
2013-05-20 07:32:00,64.0,57.0,29.72,SW,225,12.0,15.0,78,0.01,,,0.22,meteohub,2013-05-20 12:32:00,
2013-05-20 07:37:00,64.0,57.4,29.71,SE,135,15.0,15.0,79,0.01,,,0.22,meteohub,2013-05-20 12:37:00,
2013-05-20 07:42:00,64.0,57.4,29.70,South,180,12.0,15.0,79,0.01,,,0.22,meteohub,2013-05-20 12:42:00,
2013-05-20 07:47:00,64.0,57.4,29.70,SSW,203,9.0,15.0,79,0.01,,,0.22,meteohub,2013-05-20 12:47:00,
2013-05-20 07:52:00,64.0,57.4,29.70,SSW,203,11.0,15.0,79,0.00,,,0.22,meteohub,2013-05-20 12:52:00,
2013-05-20 07:57:00,64.2,57.6,29.70,SW,225,12.0,14.0,79,0.00,,,0.22,meteohub,2013-05-20 12:57:00,
2013-05-20 08:02:00,64.6,57.9,29.70,SW,225,11.0,14.0,79,0.00,,,0.22,meteohub,2013-05-20 13:02:00,
2013-05-20 08:07:00,64.8,58.1,29.69,SSW,203,12.0,14.0,79,0.00,,,0.22,meteohub,2013-05-20 13:07:00,
2013-05-20 08:12:00,64.8,58.1,29.70,SW,225,13.0,13.0,79,0.00,,,0.22,meteohub,2013-05-20 13:12:00,
2013-05-20 08:17:00,65.3,58.6,29.70,SSW,203,10.0,14.0,79,0.00,,,0.22,meteohub,2013-05-20 13:17:00,
2013-05-20 08:22:00,65.7,58.3,29.70,SW,225,13.0,14.0,77,0.00,,,0.22,meteohub,2013-05-20 13:22:00,
2013-05-20 08:27:00,66.0,59.4,29.70,SW,225,10.0,14.0,79,0.00,,,0.22,meteohub,2013-05-20 13:27:00,
2013-05-20 08:32:00,66.6,58.8,29.71,SE,135,13.0,17.0,76,0.00,,,0.22,meteohub,2013-05-20 13:32:00,
2013-05-20 08:37:00,66.9,58.8,29.71,SW,225,15.0,19.0,75,0.00,,,0.22,meteohub,2013-05-20 13:37:00,
2013-05-20 08:42:00,66.9,59.2,29.71,SW,225,12.0,19.0,76,0.00,,,0.22,meteohub,2013-05-20 13:42:00,
2013-05-20 08:47:00,67.5,59.5,29.71,South,180,12.0,16.0,76,0.00,,,0.22,meteohub,2013-05-20 13:47:00,
2013-05-20 08:52:00,67.5,59.5,29.72,WNW,293,11.0,16.0,76,0.00,,,0.22,meteohub,2013-05-20 13:52:00,
2013-05-20 08:57:00,68.0,59.7,29.72,SW,225,13.0,15.0,75,0.00,,,0.22,meteohub,2013-05-20 13:57:00,
2013-05-20 09:02:00,68.2,59.5,29.72,SW,225,15.0,17.0,74,0.00,,,0.22,meteohub,2013-05-20 14:02:00,
2013-05-20 09:07:00,68.5,59.5,29.72,WSW,248,15.0,17.0,73,0.00,,,0.22,meteohub,2013-05-20 14:07:00,
2013-05-20 09:12:00,68.4,59.0,29.72,SW,225,17.0,17.0,72,0.00,,,0.22,meteohub,2013-05-20 14:12:00,
2013-05-20 09:17:00,68.2,58.8,29.71,WNW,293,15.0,20.0,72,0.00,,,0.22,meteohub,2013-05-20 14:17:00,
2013-05-20 09:22:00,68.0,58.6,29.72,SW,225,17.0,20.0,72,0.00,,,0.22,meteohub,2013-05-20 14:22:00,
2013-05-20 09:27:00,68.0,58.6,29.72,West,270,18.0,22.0,72,0.00,,,0.22,meteohub,2013-05-20 14:27:00,
2013-05-20 09:32:00,68.4,58.3,29.72,SW,225,19.0,22.0,70,0.00,,,0.22,meteohub,2013-05-20 14:32:00,
2013-05-20 09:37:00,68.7,58.5,29.71,South,180,19.0,22.0,70,0.00,,,0.22,meteohub,2013-05-20 14:37:00,
2013-05-20 09:42:00,69.1,59.4,29.72,SW,225,17.0,21.0,71,0.00,,,0.22,meteohub,2013-05-20 14:42:00,
2013-05-20 09:47:00,69.4,60.1,29.72,South,180,14.0,23.0,72,0.00,,,0.22,meteohub,2013-05-20 14:47:00,
2013-05-20 09:52:00,69.8,58.8,29.72,SW,225,19.0,23.0,68,0.00,,,0.22,meteohub,2013-05-20 14:52:00,
2013-05-20 09:57:00,70.2,59.5,29.72,North,0,17.0,19.0,69,0.00,,,0.22,meteohub,2013-05-20 14:57:00,
2013-05-20 10:02:00,70.0,58.1,29.72,WSW,248,22.0,22.0,66,0.00,,,0.22,meteohub,2013-05-20 15:02:00,
2013-05-20 10:07:00,70.2,59.2,29.72,SW,225,15.0,26.0,68,0.00,,,0.22,meteohub,2013-05-20 15:07:00,
2013-05-20 10:12:00,70.5,59.0,29.71,SW,225,18.0,26.0,67,0.00,,,0.22,meteohub,2013-05-20 15:12:00,
2013-05-20 10:17:00,70.5,57.7,29.72,WSW,248,19.0,22.0,64,0.00,,,0.22,meteohub,2013-05-20 15:17:00,
2013-05-20 10:22:00,71.1,58.6,29.72,West,270,21.0,21.0,65,0.00,,,0.22,meteohub,2013-05-20 15:22:00,
2013-05-20 10:27:00,70.9,57.7,29.72,West,270,21.0,23.0,63,0.00,,,0.22,meteohub,2013-05-20 15:27:00,
2013-05-20 10:32:00,70.5,57.7,29.72,WSW,248,16.0,23.0,64,0.00,,,0.22,meteohub,2013-05-20 15:32:00,
2013-05-20 10:37:00,70.9,59.7,29.72,SE,135,10.0,23.0,68,0.00,,,0.22,meteohub,2013-05-20 15:37:00,
2013-05-20 10:42:00,71.2,58.5,29.71,SW,225,15.0,21.0,64,0.00,,,0.22,meteohub,2013-05-20 15:42:00,
2013-05-20 10:47:00,71.4,58.1,29.71,SW,225,17.0,19.0,63,0.00,,,0.22,meteohub,2013-05-20 15:47:00,
2013-05-20 10:52:00,72.0,59.9,29.71,SW,225,11.0,19.0,66,0.00,,,0.22,meteohub,2013-05-20 15:52:00,
2013-05-20 10:57:00,72.1,58.5,29.71,SW,225,12.0,17.0,62,0.00,,,0.22,meteohub,2013-05-20 15:57:00,
2013-05-20 11:02:00,72.3,58.6,29.72,South,180,12.0,17.0,62,0.00,,,0.22,meteohub,2013-05-20 16:02:00,
2013-05-20 11:07:00,72.7,60.6,29.72,South,180,10.0,15.0,66,0.00,,,0.22,meteohub,2013-05-20 16:07:00,
2013-05-20 11:12:00,72.9,59.5,29.72,SSW,203,13.0,13.0,63,0.00,,,0.22,meteohub,2013-05-20 16:12:00,
2013-05-20 11:17:00,72.5,59.5,29.71,West,270,8.0,15.0,64,0.00,,,0.22,meteohub,2013-05-20 16:17:00,
2013-05-20 11:22:00,72.5,58.3,29.71,South,180,8.0,16.0,61,0.00,,,0.22,meteohub,2013-05-20 16:22:00,
2013-05-20 11:27:00,73.2,59.9,29.72,SW,225,15.0,16.0,63,0.00,,,0.22,meteohub,2013-05-20 16:27:00,
2013-05-20 11:32:00,73.8,59.0,29.72,West,270,17.0,17.0,60,0.00,,,0.22,meteohub,2013-05-20 16:32:00,
2013-05-20 11:37:00,73.8,58.5,29.72,SW,225,12.0,17.0,59,0.00,,,0.22,meteohub,2013-05-20 16:37:00,
2013-05-20 11:42:00,73.4,57.7,29.72,SW,225,11.0,17.0,58,0.00,,,0.22,meteohub,2013-05-20 16:42:00,
2013-05-20 11:47:00,73.2,58.1,29.73,South,180,18.0,18.0,59,0.00,,,0.22,meteohub,2013-05-20 16:47:00,
2013-05-20 11:52:00,72.9,59.0,29.72,SW,225,11.0,19.0,62,0.00,,,0.22,meteohub,2013-05-20 16:52:00,
2013-05-20 11:57:00,73.6,58.8,29.73,SW,225,10.0,19.0,60,0.00,,,0.22,meteohub,2013-05-20 16:57:00,
2013-05-20 12:02:00,74.1,60.3,29.73,SW,225,11.0,19.0,62,0.00,,,0.22,meteohub,2013-05-20 17:02:00,
2013-05-20 12:07:00,73.8,59.0,29.72,SW,225,17.0,17.0,60,0.00,,,0.22,meteohub,2013-05-20 17:07:00,
2013-05-20 12:12:00,73.9,59.2,29.73,WSW,248,12.0,19.0,60,0.00,,,0.22,meteohub,2013-05-20 17:12:00,
2013-05-20 12:17:00,74.7,58.8,29.73,WSW,248,16.0,19.0,58,0.00,,,0.22,meteohub,2013-05-20 17:17:00,
2013-05-20 12:22:00,74.7,58.8,29.73,SW,225,17.0,19.0,58,0.00,,,0.22,meteohub,2013-05-20 17:22:00,
2013-05-20 12:27:00,74.5,58.8,29.73,SW,225,20.0,20.0,58,0.00,,,0.22,meteohub,2013-05-20 17:27:00,
2013-05-20 12:32:00,75.0,59.2,29.73,SW,225,20.0,23.0,58,0.00,,,0.22,meteohub,2013-05-20 17:32:00,
2013-05-20 12:37:00,74.5,58.8,29.73,SW,225,15.0,23.0,58,0.00,,,0.22,meteohub,2013-05-20 17:37:00,
2013-05-20 12:42:00,75.0,59.7,29.73,WSW,248,15.0,20.0,59,0.00,,,0.22,meteohub,2013-05-20 17:42:00,
2013-05-20 12:47:00,75.0,59.7,29.72,SW,225,15.0,20.0,59,0.00,,,0.22,meteohub,2013-05-20 17:47:00,
2013-05-20 12:52:00,75.7,59.4,29.73,SW,225,18.0,20.0,57,0.00,,,0.22,meteohub,2013-05-20 17:52:00,
2013-05-20 12:57:00,75.6,60.3,29.73,SW,225,11.0,22.0,59,0.00,,,0.22,meteohub,2013-05-20 17:57:00,
2013-05-20 13:02:00,76.1,60.3,29.73,SW,225,16.0,22.0,58,0.00,,,0.22,meteohub,2013-05-20 18:02:00,
2013-05-20 13:07:00,76.3,59.0,29.72,NNE,23,21.0,22.0,55,0.00,,,0.22,meteohub,2013-05-20 18:07:00,
2013-05-20 13:12:00,75.9,60.1,29.72,SE,135,13.0,21.0,58,0.00,,,0.22,meteohub,2013-05-20 18:12:00,
2013-05-20 13:17:00,76.5,59.2,29.72,SW,225,19.0,21.0,55,0.00,,,0.22,meteohub,2013-05-20 18:17:00,
2013-05-20 13:22:00,76.5,59.2,29.73,SW,225,13.0,21.0,55,0.00,,,0.22,meteohub,2013-05-20 18:22:00,
2013-05-20 13:27:00,76.5,61.5,29.73,SW,225,11.0,23.0,60,0.00,,,0.22,meteohub,2013-05-20 18:27:00,
2013-05-20 13:32:00,77.4,61.3,29.73,SW,225,18.0,23.0,58,0.00,,,0.22,meteohub,2013-05-20 18:32:00,
2013-05-20 13:37:00,77.4,60.4,29.73,SW,225,18.0,21.0,56,0.00,,,0.22,meteohub,2013-05-20 18:37:00,
2013-05-20 13:42:00,77.2,61.3,29.73,South,180,14.0,21.0,58,0.00,,,0.22,meteohub,2013-05-20 18:42:00,
2013-05-20 13:47:00,76.6,59.2,29.73,South,180,17.0,21.0,55,0.00,,,0.22,meteohub,2013-05-20 18:47:00,
2013-05-20 13:52:00,76.3,59.0,29.73,SW,225,16.0,24.0,55,0.00,,,0.22,meteohub,2013-05-20 18:52:00,
2013-05-20 13:57:00,76.8,59.0,29.73,SW,225,21.0,24.0,54,0.00,,,0.22,meteohub,2013-05-20 18:57:00,
2013-05-20 14:02:00,77.2,59.7,29.72,South,180,18.0,25.0,55,0.00,,,0.22,meteohub,2013-05-20 19:02:00,
2013-05-20 14:07:00,77.2,59.2,29.73,SW,225,21.0,25.0,54,0.00,,,0.22,meteohub,2013-05-20 19:07:00,
2013-05-20 14:12:00,77.4,59.9,29.72,SW,225,15.0,25.0,55,0.00,,,0.22,meteohub,2013-05-20 19:12:00,
2013-05-20 14:17:00,77.2,60.3,29.72,WSW,248,17.0,25.0,56,0.00,,,0.22,meteohub,2013-05-20 19:17:00,
2013-05-20 14:22:00,77.4,59.9,29.72,SW,225,15.0,25.0,55,0.00,,,0.22,meteohub,2013-05-20 19:22:00,
2013-05-20 14:27:00,77.4,58.8,29.72,NW,315,21.0,21.0,53,0.00,,,0.22,meteohub,2013-05-20 19:27:00,
2013-05-20 14:32:00,77.5,59.0,29.72,North,0,17.0,25.0,53,0.00,,,0.22,meteohub,2013-05-20 19:32:00,
2013-05-20 14:37:00,78.1,61.2,29.73,SW,225,14.0,25.0,56,0.00,,,0.22,meteohub,2013-05-20 19:37:00,
2013-05-20 14:42:00,77.5,59.0,29.73,South,180,18.0,25.0,53,0.00,,,0.22,meteohub,2013-05-20 19:42:00,
2013-05-20 14:47:00,78.1,60.6,29.72,SE,135,17.0,23.0,55,0.00,,,0.22,meteohub,2013-05-20 19:47:00,
2013-05-20 14:52:00,78.3,59.7,29.72,SSW,203,15.0,23.0,53,0.00,,,0.22,meteohub,2013-05-20 19:52:00,
2013-05-20 14:57:00,78.4,60.4,29.72,SW,225,17.0,23.0,54,0.00,,,0.22,meteohub,2013-05-20 19:57:00,
2013-05-20 15:02:00,78.8,60.8,29.72,SW,225,12.0,23.0,54,0.00,,,0.22,meteohub,2013-05-20 20:02:00,
2013-05-20 15:07:00,78.8,60.3,29.72,WSW,248,15.0,21.0,53,0.00,,,0.22,meteohub,2013-05-20 20:07:00,
2013-05-20 15:13:00,79.0,59.4,29.72,SW,225,17.0,21.0,51,0.00,,,0.22,meteohub,2013-05-20 20:13:00,
2013-05-20 15:18:00,78.8,59.2,29.71,SW,225,16.0,21.0,51,0.00,,,0.22,meteohub,2013-05-20 20:18:00,
2013-05-20 15:23:00,79.0,58.8,29.72,SW,225,17.0,18.0,50,0.00,,,0.22,meteohub,2013-05-20 20:23:00,
2013-05-20 15:28:00,79.2,60.6,29.72,SW,225,17.0,22.0,53,0.00,,,0.22,meteohub,2013-05-20 20:28:00,
2013-05-20 15:33:00,79.7,58.8,29.70,SW,225,24.0,24.0,49,0.00,,,0.22,meteohub,2013-05-20 20:33:00,
2013-05-20 15:38:00,79.5,58.6,29.71,WNW,293,18.0,22.0,49,0.00,,,0.22,meteohub,2013-05-20 20:38:00,
2013-05-20 15:43:00,79.7,58.8,29.71,SW,225,27.0,27.0,49,0.00,,,0.22,meteohub,2013-05-20 20:43:00,
2013-05-20 15:48:00,79.5,59.7,29.71,WSW,248,24.0,27.0,51,0.00,,,0.22,meteohub,2013-05-20 20:48:00,
2013-05-20 15:53:00,79.7,59.9,29.71,WNW,293,19.0,27.0,51,0.00,,,0.22,meteohub,2013-05-20 20:53:00,
2013-05-20 15:58:00,79.9,59.5,29.71,SSW,203,20.0,27.0,50,0.00,,,0.22,meteohub,2013-05-20 20:58:00,
2013-05-20 16:04:00,79.2,58.3,29.71,SSW,203,20.0,24.0,49,0.00,,,0.22,meteohub,2013-05-20 21:04:00,
2013-05-20 16:09:00,79.0,61.0,29.71,South,180,16.0,23.0,54,0.00,,,0.22,meteohub,2013-05-20 21:09:00,
2013-05-20 16:14:00,79.2,60.1,29.70,SW,225,20.0,24.0,52,0.00,,,0.22,meteohub,2013-05-20 21:14:00,
2013-05-20 16:19:00,79.2,60.1,29.70,SW,225,17.0,24.0,52,0.00,,,0.22,meteohub,2013-05-20 21:19:00,
2013-05-20 16:24:00,79.3,59.7,29.70,NW,315,21.0,24.0,51,0.00,,,0.22,meteohub,2013-05-20 21:24:00,
2013-05-20 16:29:00,79.0,59.4,29.70,SW,225,20.0,23.0,51,0.00,,,0.22,meteohub,2013-05-20 21:29:00,
2013-05-20 16:34:00,79.0,59.9,29.70,SW,225,15.0,23.0,52,0.00,,,0.22,meteohub,2013-05-20 21:34:00,
2013-05-20 16:39:00,79.2,59.5,29.69,WSW,248,16.0,24.0,51,0.00,,,0.22,meteohub,2013-05-20 21:39:00,
2013-05-20 16:44:00,79.2,59.5,29.69,SW,225,20.0,24.0,51,0.00,,,0.22,meteohub,2013-05-20 21:44:00,
2013-05-20 16:49:00,79.0,58.8,29.69,NW,315,19.0,26.0,50,0.00,,,0.22,meteohub,2013-05-20 21:49:00,
2013-05-20 16:55:00,79.0,58.1,29.69,WSW,248,22.0,26.0,49,0.00,,,0.22,meteohub,2013-05-20 21:55:00,
2013-05-20 17:00:00,79.2,60.1,29.69,SW,225,18.0,26.0,52,0.00,,,0.22,meteohub,2013-05-20 22:00:00,
2013-05-20 17:05:00,79.2,60.6,29.69,SW,225,15.0,23.0,53,0.00,,,0.22,meteohub,2013-05-20 22:05:00,
2013-05-20 17:10:00,79.3,60.3,29.68,WSW,248,16.0,23.0,52,0.00,,,0.22,meteohub,2013-05-20 22:10:00,
2013-05-20 17:15:00,79.3,60.8,29.69,South,180,12.0,21.0,53,0.00,,,0.22,meteohub,2013-05-20 22:15:00,
2013-05-20 17:20:00,79.5,60.4,29.69,South,180,14.0,18.0,52,0.00,,,0.22,meteohub,2013-05-20 22:20:00,
2013-05-20 17:25:00,79.5,58.6,29.69,SW,225,19.0,19.0,49,0.00,,,0.22,meteohub,2013-05-20 22:25:00,
2013-05-20 17:30:00,79.3,57.9,29.69,WNW,293,20.0,21.0,48,0.00,,,0.22,meteohub,2013-05-20 22:30:00,
2013-05-20 17:35:00,79.3,58.5,29.69,SW,225,18.0,21.0,49,0.00,,,0.22,meteohub,2013-05-20 22:35:00,
2013-05-20 17:40:00,79.2,59.0,29.68,SW,225,15.0,21.0,50,0.00,,,0.22,meteohub,2013-05-20 22:40:00,
2013-05-20 17:45:00,79.3,59.7,29.68,WSW,248,13.0,20.0,51,0.00,,,0.22,meteohub,2013-05-20 22:45:00,
2013-05-20 17:50:00,79.3,59.7,29.68,SW,225,12.0,20.0,51,0.00,,,0.22,meteohub,2013-05-20 22:50:00,
2013-05-20 17:55:00,79.0,57.6,29.68,SW,225,20.0,20.0,48,0.00,,,0.22,meteohub,2013-05-20 22:55:00,
2013-05-20 18:01:00,78.6,57.9,29.68,SW,225,16.0,23.0,49,0.00,,,0.22,meteohub,2013-05-20 23:01:00,
2013-05-20 18:06:00,78.6,57.9,29.68,SW,225,17.0,23.0,49,0.00,,,0.22,meteohub,2013-05-20 23:06:00,
2013-05-20 18:11:00,78.6,58.5,29.68,NW,315,12.0,20.0,50,0.00,,,0.22,meteohub,2013-05-20 23:11:00,
2013-05-20 18:16:00,78.6,57.9,29.69,SW,225,15.0,19.0,49,0.00,,,0.22,meteohub,2013-05-20 23:16:00,
2013-05-20 18:21:00,78.6,59.5,29.68,SW,225,8.0,19.0,52,0.00,,,0.22,meteohub,2013-05-20 23:21:00,
2013-05-20 18:26:00,78.3,58.6,29.68,SW,225,15.0,21.0,51,0.00,,,0.22,meteohub,2013-05-20 23:26:00,
2013-05-20 18:31:00,78.3,59.2,29.68,SW,225,13.0,21.0,52,0.00,,,0.22,meteohub,2013-05-20 23:31:00,
2013-05-20 18:36:00,78.1,59.5,29.68,SW,225,12.0,21.0,53,0.00,,,0.22,meteohub,2013-05-20 23:36:00,
2013-05-20 18:41:00,78.1,58.5,29.68,NW,315,12.0,18.0,51,0.00,,,0.22,meteohub,2013-05-20 23:41:00,
2013-05-20 18:46:00,78.1,59.0,29.68,WSW,248,12.0,15.0,52,0.00,,,0.22,meteohub,2013-05-20 23:46:00,
2013-05-20 18:51:00,77.9,58.8,29.68,SW,225,8.0,15.0,52,0.00,,,0.22,meteohub,2013-05-20 23:51:00,
2013-05-20 18:56:00,77.7,57.6,29.68,SW,225,16.0,17.0,50,0.00,,,0.22,meteohub,2013-05-20 23:56:00,
2013-05-20 19:01:00,77.5,57.4,29.68,West,270,15.0,17.0,50,0.00,,,0.22,meteohub,2013-05-21 00:01:00,
2013-05-20 19:07:00,77.4,57.2,29.68,SW,225,11.0,17.0,50,0.00,,,0.22,meteohub,2013-05-21 00:07:00,
2013-05-20 19:12:00,77.2,57.0,29.68,SW,225,13.0,17.0,50,0.00,,,0.22,meteohub,2013-05-21 00:12:00,
2013-05-20 19:17:00,77.0,57.6,29.68,South,180,9.0,17.0,51,0.00,,,0.22,meteohub,2013-05-21 00:17:00,
2013-05-20 19:22:00,76.6,58.3,29.69,SW,225,8.0,16.0,53,0.00,,,0.22,meteohub,2013-05-21 00:22:00,
2013-05-20 19:27:00,76.5,58.6,29.69,South,180,11.0,15.0,54,0.00,,,0.22,meteohub,2013-05-21 00:27:00,
2013-05-20 19:32:00,76.1,58.8,29.69,SW,225,10.0,11.0,55,0.00,,,0.22,meteohub,2013-05-21 00:32:00,
2013-05-20 19:37:00,75.7,58.5,29.69,WSW,248,11.0,15.0,55,0.00,,,0.22,meteohub,2013-05-21 00:37:00,
2013-05-20 19:42:00,75.6,57.2,29.70,WSW,248,21.0,21.0,53,0.00,,,0.22,meteohub,2013-05-21 00:42:00,
2013-05-20 19:47:00,75.4,57.6,29.69,SW,225,11.0,21.0,54,0.00,,,0.22,meteohub,2013-05-21 00:47:00,
2013-05-20 19:52:00,75.0,57.2,29.69,South,180,11.0,21.0,54,0.00,,,0.22,meteohub,2013-05-21 00:52:00,
2013-05-20 19:57:00,74.7,56.5,29.69,SW,225,9.0,21.0,53,0.00,,,0.22,meteohub,2013-05-21 00:57:00,
2013-05-20 20:02:00,74.3,56.7,29.69,SW,225,9.0,15.0,54,0.00,,,0.22,meteohub,2013-05-21 01:02:00,
2013-05-20 20:07:00,73.8,56.1,29.68,SW,225,8.0,15.0,54,0.00,,,0.22,meteohub,2013-05-21 01:07:00,
2013-05-20 20:12:00,73.6,56.5,29.69,SW,225,6.0,13.0,55,0.00,,,0.22,meteohub,2013-05-21 01:12:00,
2013-05-20 20:17:00,73.4,56.3,29.68,South,180,8.0,11.0,55,0.00,,,0.22,meteohub,2013-05-21 01:17:00,
2013-05-20 20:22:00,72.9,56.3,29.68,SW,225,7.0,10.0,56,0.00,,,0.22,meteohub,2013-05-21 01:22:00,
2013-05-20 20:27:00,72.7,56.1,29.68,SW,225,6.0,10.0,56,0.00,,,0.22,meteohub,2013-05-21 01:27:00,
2013-05-20 20:32:00,72.7,56.1,29.68,SW,225,6.0,9.0,56,0.00,,,0.22,meteohub,2013-05-21 01:32:00,
2013-05-20 20:37:00,72.5,55.9,29.68,South,180,7.0,9.0,56,0.00,,,0.22,meteohub,2013-05-21 01:37:00,
2013-05-20 20:42:00,72.7,56.5,29.68,South,180,6.0,9.0,57,0.00,,,0.22,meteohub,2013-05-21 01:42:00,
2013-05-20 20:48:00,72.3,56.3,29.68,SW,225,5.0,9.0,57,0.00,,,0.22,meteohub,2013-05-21 01:48:00,
2013-05-20 20:53:00,72.0,56.3,29.68,SW,225,8.0,8.0,58,0.00,,,0.22,meteohub,2013-05-21 01:53:00,
2013-05-20 20:58:00,71.8,56.7,29.68,South,180,8.0,8.0,59,0.00,,,0.22,meteohub,2013-05-21 01:58:00,
2013-05-20 21:03:00,71.8,56.7,29.68,South,180,8.0,9.0,59,0.00,,,0.22,meteohub,2013-05-21 02:03:00,
2013-05-20 21:08:00,71.4,56.8,29.68,South,180,8.0,9.0,60,0.00,,,0.22,meteohub,2013-05-21 02:08:00,
2013-05-20 21:13:00,71.2,57.0,29.69,South,180,9.0,10.0,61,0.00,,,0.22,meteohub,2013-05-21 02:13:00,
2013-05-20 21:18:00,71.1,56.8,29.69,South,180,5.0,10.0,61,0.00,,,0.22,meteohub,2013-05-21 02:18:00,
2013-05-20 21:23:00,70.9,57.2,29.69,SW,225,6.0,10.0,62,0.00,,,0.22,meteohub,2013-05-21 02:23:00,
2013-05-20 21:28:00,70.9,57.2,29.69,SW,225,7.0,9.0,62,0.00,,,0.22,meteohub,2013-05-21 02:28:00,
2013-05-20 21:33:00,70.9,57.2,29.68,SE,135,3.0,8.0,62,0.00,,,0.22,meteohub,2013-05-21 02:33:00,
2013-05-20 21:38:00,70.9,57.2,29.68,South,180,2.0,7.0,62,0.00,,,0.22,meteohub,2013-05-21 02:38:00,
2013-05-20 21:43:00,70.9,57.2,29.68,SSE,158,4.0,7.0,62,0.00,,,0.22,meteohub,2013-05-21 02:43:00,
2013-05-20 21:48:00,70.9,57.7,29.68,South,180,2.0,5.0,63,0.00,,,0.22,meteohub,2013-05-21 02:48:00,
2013-05-20 21:54:00,70.9,57.7,29.68,SE,135,4.0,4.0,63,0.00,,,0.22,meteohub,2013-05-21 02:54:00,
2013-05-20 21:59:00,70.5,57.7,29.68,SE,135,4.0,4.0,64,0.00,,,0.22,meteohub,2013-05-21 02:59:00,
2013-05-20 22:04:00,70.2,57.9,29.68,SE,135,5.0,5.0,65,0.00,,,0.22,meteohub,2013-05-21 03:04:00,
2013-05-20 22:09:00,70.2,57.9,29.66,SE,135,5.0,5.0,65,0.00,,,0.22,meteohub,2013-05-21 03:09:00,
2013-05-20 22:14:00,70.0,57.7,29.66,SE,135,5.0,6.0,65,0.00,,,0.22,meteohub,2013-05-21 03:14:00,
2013-05-20 22:19:00,70.0,57.7,29.66,SE,135,4.0,6.0,65,0.00,,,0.22,meteohub,2013-05-21 03:19:00,
2013-05-20 22:24:00,69.8,57.9,29.66,SE,135,4.0,6.0,66,0.00,,,0.22,meteohub,2013-05-21 03:24:00,
2013-05-20 22:29:00,69.6,57.7,29.66,SE,135,7.0,7.0,66,0.00,,,0.22,meteohub,2013-05-21 03:29:00,
2013-05-20 22:34:00,69.6,58.1,29.67,SE,135,6.0,6.0,67,0.00,,,0.22,meteohub,2013-05-21 03:34:00,
2013-05-20 22:39:00,69.8,57.9,29.67,SSE,158,7.0,7.0,66,0.00,,,0.22,meteohub,2013-05-21 03:39:00,
2013-05-20 22:44:00,70.0,58.1,29.67,South,180,7.0,8.0,66,0.00,,,0.22,meteohub,2013-05-21 03:44:00,
2013-05-20 22:49:00,70.0,57.7,29.68,SE,135,8.0,8.0,65,0.00,,,0.22,meteohub,2013-05-21 03:49:00,
2013-05-20 22:55:00,69.8,57.9,29.67,South,180,7.0,9.0,66,0.00,,,0.22,meteohub,2013-05-21 03:55:00,
2013-05-20 23:00:00,69.8,57.9,29.66,South,180,8.0,9.0,66,0.00,,,0.22,meteohub,2013-05-21 04:00:00,
2013-05-20 23:01:00,69.6,57.7,29.66,South,180,7.0,10.0,66,0.00,,,0.22,meteohub,2013-05-21 04:01:00,
2013-05-20 23:02:00,69.6,57.7,29.66,SE,135,7.0,10.0,66,0.00,,,0.22,meteohub,2013-05-21 04:02:00,
2013-05-20 23:04:00,69.6,58.1,29.66,South,180,8.0,10.0,67,0.00,,,0.22,meteohub,2013-05-21 04:04:00,
2013-05-20 23:09:00,69.3,57.9,29.66,South,180,10.0,10.0,67,0.00,,,0.22,meteohub,2013-05-21 04:09:00,
2013-05-20 23:14:00,69.4,57.9,29.65,SSE,158,11.0,11.0,67,0.00,,,0.22,meteohub,2013-05-21 04:14:00,
2013-05-20 23:19:00,69.6,57.7,29.65,SE,135,11.0,11.0,66,0.00,,,0.22,meteohub,2013-05-21 04:19:00,
2013-05-20 23:24:00,69.8,57.6,29.64,SE,135,9.0,11.0,65,0.00,,,0.22,meteohub,2013-05-21 04:24:00,
2013-05-20 23:29:00,70.0,57.2,29.64,South,180,8.0,15.0,64,0.00,,,0.22,meteohub,2013-05-21 04:29:00,
2013-05-20 23:34:00,70.0,57.7,29.62,South,180,8.0,15.0,65,0.00,,,0.22,meteohub,2013-05-21 04:34:00,
2013-05-20 23:39:00,70.0,56.8,29.62,South,180,13.0,15.0,63,0.00,,,0.22,meteohub,2013-05-21 04:39:00,
2013-05-20 23:44:00,70.2,57.0,29.62,SW,225,14.0,15.0,63,0.00,,,0.22,meteohub,2013-05-21 04:44:00,
2013-05-20 23:49:00,70.2,57.0,29.62,SW,225,9.0,14.0,63,0.00,,,0.22,meteohub,2013-05-21 04:49:00,
2013-05-20 23:54:00,70.0,56.8,29.63,SE,135,14.0,14.0,63,0.00,,,0.22,meteohub,2013-05-21 04:54:00,
2013-05-20 23:59:00,70.0,56.8,29.63,South,180,8.0,14.0,63,0.00,,,0.22,meteohub,2013-05-21 04:59:00,